LEVD/VLL METAR and TAF weather

Enter ICAO airport designator
Station Type Date Time Source
LEVD METAR 2019/12/12 09:00 UTC NOAA

LEVD 120900Z 24016KT 9999 BKN006 OVC012 05/04 Q1019


Station Type Date Time Source
LEVD Decoded METAR 2019/12/12 09:00 UTC NOAA

Valladolid / Villanubla, Spain (LEVD) 41-43N 004-51W 846M
Dec 12, 2019 - 04:00 AM EST / 2019.12.12 0900 UTC
Wind: from the WSW (240 degrees) at 18 MPH (16 KT):0
Visibility: greater than 7 mile(s):0
Sky conditions: overcast
Temperature: 41 F (5 C)
Dew Point: 39 F (4 C)
Relative Humidity: 93%
Pressure (altimeter): 30.09 in. Hg (1019 hPa)
ob: LEVD 120900Z 24016KT 9999 BKN006 OVC012 05/04 Q1019
cycle: 9

Station Type Date Time Source
LEVD TAF 2019/12/12 06:27 UTC NOAA

TAF LEVD 120500Z 1206/1306 24016KT 9999 SCT020 BKN045 TX10/1215Z TN02/1206Z PROB40
TEMPO 1206/1210 0100 FG VV001 PROB40
TEMPO 1208/1306 25018G30KT PROB30 1215/1222 26022G36KT PROB40
TEMPO 1210/1222 3500 RA BR BKN012

Example: see airport list